H M S Bastard Memorial Airport


Codes: FAHU/
Name: H M S Bastard Memorial Airport
City: H.M.S.Bastard Memorial
Country: South Africa
Elevation: 4701 ft.

Photos at H M S Bastard Memorial Airport


   Photos courtesy of SpottingLog. You can add your own sightings and photos by signing up for a free trial today.



No photos found.

Weather at H M S Bastard Memorial Airport


Time (UTC)DescriptionTempratureWindCloud coverageVisibilityPressureHumidity
17-Jun-2024 06:00Overcast Clouds7°C4 mph, NW100%10000m1023hPa57%
17-Jun-2024 09:00Broken Clouds14°C2 mph, W64%10000m1021hPa36%
17-Jun-2024 12:00Scattered Clouds20°C2 mph, S36%10000m1016hPa19%
17-Jun-2024 15:00Overcast Clouds12°C2 mph, E99%10000m1016hPa45%
17-Jun-2024 18:00Broken Clouds9°C4 mph, E65%10000m1019hPa50%
17-Jun-2024 21:00Clear Sky9°C4 mph, NW0%10000m1018hPa41%
18-Jun-2024 00:00Clear Sky8°C4 mph, NW2%10000m1017hPa46%
18-Jun-2024 03:00Clear Sky8°C4 mph, NW0%10000m1015hPa58%
18-Jun-2024 06:00Clear Sky11°C7 mph, NW0%10000m1016hPa46%
18-Jun-2024 09:00Clear Sky18°C13 mph, W0%10000m1015hPa24%
18-Jun-2024 12:00Clear Sky19°C11 mph, W0%10000m1013hPa18%
18-Jun-2024 15:00Clear Sky13°C2 mph, W0%10000m1015hPa33%
18-Jun-2024 18:00Clear Sky9°C2 mph, NW0%10000m1018hPa37%
18-Jun-2024 21:00Clear Sky8°C4 mph, NW0%10000m1019hPa40%
19-Jun-2024 00:00Clear Sky7°C4 mph, NW0%10000m1019hPa43%
19-Jun-2024 03:00Clear Sky6°C4 mph, NW0%10000m1019hPa46%
19-Jun-2024 06:00Clear Sky8°C4 mph, W0%10000m1021hPa45%
19-Jun-2024 09:00Clear Sky16°C4 mph, SW5%10000m1020hPa24%
19-Jun-2024 12:00Clear Sky17°C4 mph, SW3%10000m1018hPa23%
19-Jun-2024 15:00Clear Sky9°C4 mph, E0%10000m1022hPa79%
19-Jun-2024 18:00Clear Sky6°C2 mph, E3%10000m1026hPa95%
19-Jun-2024 21:00Scattered Clouds6°C2 mph, NE28%10000m1027hPa92%
20-Jun-2024 00:00Broken Clouds7°C2 mph, NE64%10000m1026hPa89%
20-Jun-2024 03:00Overcast Clouds7°C2 mph, NE92%10000m1026hPa92%
20-Jun-2024 06:00Broken Clouds6°C4 mph, NE54%10000m1028hPa94%
20-Jun-2024 09:00Scattered Clouds13°C7 mph, NE49%10000m1025hPa62%
20-Jun-2024 12:00Scattered Clouds16°C7 mph, NE44%10000m1022hPa40%
20-Jun-2024 15:00Scattered Clouds11°C7 mph, E25%10000m1023hPa73%
20-Jun-2024 18:00Broken Clouds8°C4 mph, N55%10000m1024hPa91%
20-Jun-2024 21:00Broken Clouds8°C4 mph, NW71%10000m1024hPa69%
21-Jun-2024 00:00Broken Clouds9°C7 mph, NW74%10000m1023hPa41%
21-Jun-2024 03:00Clear Sky8°C7 mph, NW2%10000m1023hPa40%
21-Jun-2024 06:00Clear Sky10°C7 mph, NW7%10000m1024hPa38%
21-Jun-2024 09:00Clear Sky21°C4 mph, N7%10000m1021hPa19%
21-Jun-2024 12:00Clear Sky23°C4 mph, NW6%10000m1019hPa15%
21-Jun-2024 15:00Clear Sky15°C0 mph, NE6%10000m1020hPa31%
21-Jun-2024 18:00Clear Sky13°C4 mph, NW7%10000m1023hPa27%
21-Jun-2024 21:00Clear Sky12°C4 mph, NW6%10000m1024hPa29%
22-Jun-2024 00:00Clear Sky11°C4 mph, NW4%10000m1024hPa41%
22-Jun-2024 03:00Light Rain11°C2 mph, N96%10000m1025hPa52%